sensor_id;sensor_type;location;lat;lon;timestamp;pressure;altitude;pressure_sealevel;temperature;humidity
78411;BME280;67706;51.074;-1.796;2023-08-17T00:02:11;101542.44;;;16.03;88.35
78411;BME280;67706;51.074;-1.796;2023-08-17T00:04:36;101539.50;;;15.98;88.85
78411;BME280;67706;51.074;-1.796;2023-08-17T00:07:02;101537.59;;;15.92;89.04
78411;BME280;67706;51.074;-1.796;2023-08-17T00:09:28;101541.03;;;15.80;89.66
78411;BME280;67706;51.074;-1.796;2023-08-17T00:11:55;101536.13;;;15.76;89.38
78411;BME280;67706;51.074;-1.796;2023-08-17T00:14:21;101531.69;;;15.68;89.84
78411;BME280;67706;51.074;-1.796;2023-08-17T00:16:49;101535.50;;;15.54;90.11
78411;BME280;67706;51.074;-1.796;2023-08-17T00:19:15;101539.75;;;15.50;90.41
78411;BME280;67706;51.074;-1.796;2023-08-17T00:21:40;101534.66;;;15.54;89.97
78411;BME280;67706;51.074;-1.796;2023-08-17T00:24:07;101532.09;;;15.52;90.16
78411;BME280;67706;51.074;-1.796;2023-08-17T00:26:33;101537.44;;;15.47;89.83
78411;BME280;67706;51.074;-1.796;2023-08-17T00:29:00;101536.78;;;15.45;89.51
78411;BME280;67706;51.074;-1.796;2023-08-17T00:31:26;101532.91;;;15.20;90.75
78411;BME280;67706;51.074;-1.796;2023-08-17T00:33:52;101528.66;;;15.18;90.90
78411;BME280;67706;51.074;-1.796;2023-08-17T00:36:18;101529.91;;;15.08;91.05
78411;BME280;67706;51.074;-1.796;2023-08-17T00:38:44;101529.06;;;14.95;92.22
78411;BME280;67706;51.074;-1.796;2023-08-17T00:41:10;101530.31;;;14.92;92.29
78411;BME280;67706;51.074;-1.796;2023-08-17T00:43:36;101526.69;;;14.85;92.43
78411;BME280;67706;51.074;-1.796;2023-08-17T00:46:03;101528.13;;;14.75;92.89
78411;BME280;67706;51.074;-1.796;2023-08-17T00:48:29;101534.09;;;14.72;92.96
78411;BME280;67706;51.074;-1.796;2023-08-17T00:50:57;101536.69;;;14.86;92.17
78411;BME280;67706;51.074;-1.796;2023-08-17T00:53:26;101529.88;;;14.82;92.21
78411;BME280;67706;51.074;-1.796;2023-08-17T00:55:53;101523.06;;;14.91;91.50
78411;BME280;67706;51.074;-1.796;2023-08-17T00:58:20;101527.56;;;14.92;90.83
78411;BME280;67706;51.074;-1.796;2023-08-17T01:00:47;101529.25;;;14.93;90.25
78411;BME280;67706;51.074;-1.796;2023-08-17T01:03:15;101527.56;;;14.99;89.51
78411;BME280;67706;51.074;-1.796;2023-08-17T01:05:41;101521.00;;;15.13;88.79
78411;BME280;67706;51.074;-1.796;2023-08-17T01:08:07;101538.41;;;15.00;89.59
78411;BME280;67706;51.074;-1.796;2023-08-17T01:10:39;101537.53;;;14.93;88.98
78411;BME280;67706;51.074;-1.796;2023-08-17T01:13:11;101538.16;;;14.76;89.24
78411;BME280;67706;51.074;-1.796;2023-08-17T01:15:46;101538.75;;;14.65;89.67
78411;BME280;67706;51.074;-1.796;2023-08-17T01:18:21;101531.50;;;14.57;89.63
78411;BME280;67706;51.074;-1.796;2023-08-17T01:20:49;101525.94;;;14.51;89.54
78411;BME280;67706;51.074;-1.796;2023-08-17T01:23:16;101523.41;;;14.49;89.41
78411;BME280;67706;51.074;-1.796;2023-08-17T01:25:42;101532.50;;;14.50;89.36
78411;BME280;67706;51.074;-1.796;2023-08-17T01:28:08;101540.59;;;14.45;89.12
78411;BME280;67706;51.074;-1.796;2023-08-17T01:30:39;101537.41;;;14.48;89.12
78411;BME280;67706;51.074;-1.796;2023-08-17T01:33:07;101534.81;;;14.40;89.02
78411;BME280;67706;51.074;-1.796;2023-08-17T01:35:38;101535.28;;;14.50;87.86
78411;BME280;67706;51.074;-1.796;2023-08-17T01:38:12;101523.44;;;14.62;87.16
78411;BME280;67706;51.074;-1.796;2023-08-17T01:40:40;101515.38;;;14.67;86.59
78411;BME280;67706;51.074;-1.796;2023-08-17T01:43:07;101515.84;;;14.77;86.74
78411;BME280;67706;51.074;-1.796;2023-08-17T01:45:35;101526.25;;;14.82;86.97
78411;BME280;67706;51.074;-1.796;2023-08-17T01:48:01;101528.38;;;14.80;87.47
78411;BME280;67706;51.074;-1.796;2023-08-17T01:50:27;101520.53;;;14.90;87.66
78411;BME280;67706;51.074;-1.796;2023-08-17T01:52:53;101525.66;;;14.93;87.46
78411;BME280;67706;51.074;-1.796;2023-08-17T01:55:21;101528.59;;;14.91;87.03
78411;BME280;67706;51.074;-1.796;2023-08-17T01:57:48;101523.31;;;14.96;87.59
78411;BME280;67706;51.074;-1.796;2023-08-17T02:00:15;101518.00;;;14.95;87.44
78411;BME280;67706;51.074;-1.796;2023-08-17T02:02:42;101526.28;;;14.88;87.60
78411;BME280;67706;51.074;-1.796;2023-08-17T02:05:08;101521.16;;;14.85;88.38
78411;BME280;67706;51.074;-1.796;2023-08-17T02:07:34;101522.84;;;14.73;89.05
78411;BME280;67706;51.074;-1.796;2023-08-17T02:10:00;101530.28;;;14.79;88.92
78411;BME280;67706;51.074;-1.796;2023-08-17T02:12:26;101531.72;;;14.62;89.58
78411;BME280;67706;51.074;-1.796;2023-08-17T02:14:53;101541.69;;;14.57;89.53
78411;BME280;67706;51.074;-1.796;2023-08-17T02:17:19;101539.94;;;14.43;88.91
78411;BME280;67706;51.074;-1.796;2023-08-17T02:19:46;101531.38;;;14.31;89.11
78411;BME280;67706;51.074;-1.796;2023-08-17T02:22:13;101536.84;;;14.24;89.25
78411;BME280;67706;51.074;-1.796;2023-08-17T02:24:39;101536.84;;;14.24;89.77
78411;BME280;67706;51.074;-1.796;2023-08-17T02:27:07;101531.31;;;14.24;89.28
78411;BME280;67706;51.074;-1.796;2023-08-17T02:29:33;101535.09;;;14.17;89.71
78411;BME280;67706;51.074;-1.796;2023-08-17T02:32:00;101527.00;;;14.09;90.00
78411;BME280;67706;51.074;-1.796;2023-08-17T02:34:26;101542.06;;;14.06;90.42
78411;BME280;67706;51.074;-1.796;2023-08-17T02:36:52;101536.06;;;13.96;91.39
78411;BME280;67706;51.074;-1.796;2023-08-17T02:39:19;101529.88;;;13.94;91.69
78411;BME280;67706;51.074;-1.796;2023-08-17T02:41:44;101525.63;;;13.92;91.79
78411;BME280;67706;51.074;-1.796;2023-08-17T02:44:10;101532.19;;;13.91;91.79
78411;BME280;67706;51.074;-1.796;2023-08-17T02:46:37;101514.38;;;13.93;92.28
78411;BME280;67706;51.074;-1.796;2023-08-17T02:49:03;101522.06;;;13.98;92.23
78411;BME280;67706;51.074;-1.796;2023-08-17T02:51:29;101528.66;;;14.03;92.67
78411;BME280;67706;51.074;-1.796;2023-08-17T02:53:56;101515.09;;;14.08;92.50
78411;BME280;67706;51.074;-1.796;2023-08-17T02:56:21;101515.94;;;14.02;93.09
78411;BME280;67706;51.074;-1.796;2023-08-17T02:58:47;101518.25;;;13.99;93.16
78411;BME280;67706;51.074;-1.796;2023-08-17T03:01:13;101526.91;;;13.96;93.26
78411;BME280;67706;51.074;-1.796;2023-08-17T03:03:39;101516.53;;;13.98;93.29
78411;BME280;67706;51.074;-1.796;2023-08-17T03:06:06;101521.84;;;13.99;93.68
78411;BME280;67706;51.074;-1.796;2023-08-17T03:08:32;101514.25;;;14.08;93.13
78411;BME280;67706;51.074;-1.796;2023-08-17T03:10:58;101513.88;;;14.17;92.85
78411;BME280;67706;51.074;-1.796;2023-08-17T03:13:24;101515.97;;;14.09;93.23
78411;BME280;67706;51.074;-1.796;2023-08-17T03:15:50;101518.34;;;14.18;93.22
78411;BME280;67706;51.074;-1.796;2023-08-17T03:18:16;101521.09;;;14.18;93.12
78411;BME280;67706;51.074;-1.796;2023-08-17T03:20:44;101521.75;;;14.20;93.21
78411;BME280;67706;51.074;-1.796;2023-08-17T03:23:11;101516.03;;;14.22;93.15
78411;BME280;67706;51.074;-1.796;2023-08-17T03:25:37;101511.34;;;14.22;93.18
78411;BME280;67706;51.074;-1.796;2023-08-17T03:28:03;101502.44;;;14.20;93.64
78411;BME280;67706;51.074;-1.796;2023-08-17T03:30:30;101508.16;;;14.19;94.00
78411;BME280;67706;51.074;-1.796;2023-08-17T03:32:55;101504.34;;;14.20;94.39
78411;BME280;67706;51.074;-1.796;2023-08-17T03:35:21;101509.63;;;14.15;95.87
78411;BME280;67706;51.074;-1.796;2023-08-17T03:37:48;101506.22;;;14.13;96.05
78411;BME280;67706;51.074;-1.796;2023-08-17T03:40:14;101502.22;;;14.15;96.63
78411;BME280;67706;51.074;-1.796;2023-08-17T03:42:40;101503.28;;;14.21;97.09
78411;BME280;67706;51.074;-1.796;2023-08-17T03:45:07;101502.03;;;14.23;97.61
78411;BME280;67706;51.074;-1.796;2023-08-17T03:47:33;101497.78;;;14.27;97.65
78411;BME280;67706;51.074;-1.796;2023-08-17T03:49:59;101488.94;;;14.32;98.11
78411;BME280;67706;51.074;-1.796;2023-08-17T03:52:25;101489.38;;;14.36;98.94
78411;BME280;67706;51.074;-1.796;2023-08-17T03:54:51;101483.63;;;14.37;99.32
78411;BME280;67706;51.074;-1.796;2023-08-17T03:57:18;101482.16;;;14.41;99.78
78411;BME280;67706;51.074;-1.796;2023-08-17T03:59:44;101494.09;;;14.55;100.00
78411;BME280;67706;51.074;-1.796;2023-08-17T04:02:10;101487.53;;;14.62;100.00
78411;BME280;67706;51.074;-1.796;2023-08-17T04:04:36;101489.03;;;14.65;100.00
78411;BME280;67706;51.074;-1.796;2023-08-17T04:07:02;101489.91;;;14.72;100.00
78411;BME280;67706;51.074;-1.796;2023-08-17T04:09:28;101492.47;;;14.80;100.00
78411;BME280;67706;51.074;-1.796;2023-08-17T04:11:54;101491.22;;;14.89;100.00
78411;BME280;67706;51.074;-1.796;2023-08-17T04:14:23;101484.41;;;14.85;100.00
78411;BME280;67706;51.074;-1.796;2023-08-17T04:16:49;101492.91;;;14.90;100.00
78411;BME280;67706;51.074;-1.796;2023-08-17T04:19:15;101498.44;;;14.96;100.00
78411;BME280;67706;51.074;-1.796;2023-08-17T04:21:41;101493.78;;;14.97;100.00
78411;BME280;67706;51.074;-1.796;2023-08-17T04:24:07;101500.34;;;15.02;100.00
78411;BME280;67706;51.074;-1.796;2023-08-17T04:26:33;101492.09;;;15.09;100.00
78411;BME280;67706;51.074;-1.796;2023-08-17T04:28:59;101489.97;;;15.11;100.00
78411;BME280;67706;51.074;-1.796;2023-08-17T04:31:26;101480.41;;;15.13;100.00
78411;BME280;67706;51.074;-1.796;2023-08-17T04:33:52;101479.78;;;15.18;100.00
78411;BME280;67706;51.074;-1.796;2023-08-17T04:36:18;101479.53;;;15.20;100.00
78411;BME280;67706;51.074;-1.796;2023-08-17T04:38:44;101475.06;;;15.25;100.00
78411;BME280;67706;51.074;-1.796;2023-08-17T04:41:10;101485.28;;;15.31;100.00
78411;BME280;67706;51.074;-1.796;2023-08-17T04:43:36;101482.50;;;15.31;100.00
78411;BME280;67706;51.074;-1.796;2023-08-17T04:46:02;101478.69;;;15.32;100.00
78411;BME280;67706;51.074;-1.796;2023-08-17T04:48:28;101478.06;;;15.30;100.00
78411;BME280;67706;51.074;-1.796;2023-08-17T04:50:55;101482.94;;;15.28;100.00
78411;BME280;67706;51.074;-1.796;2023-08-17T04:53:20;101486.56;;;15.29;100.00
78411;BME280;67706;51.074;-1.796;2023-08-17T04:55:46;101491.66;;;15.25;100.00
78411;BME280;67706;51.074;-1.796;2023-08-17T04:58:12;101485.50;;;15.36;100.00
78411;BME280;67706;51.074;-1.796;2023-08-17T05:00:38;101480.19;;;15.35;100.00
78411;BME280;67706;51.074;-1.796;2023-08-17T05:03:04;101483.78;;;15.42;100.00
78411;BME280;67706;51.074;-1.796;2023-08-17T05:05:31;101485.94;;;15.46;100.00
78411;BME280;67706;51.074;-1.796;2023-08-17T05:07:57;101493.81;;;15.49;100.00
78411;BME280;67706;51.074;-1.796;2023-08-17T05:10:24;101486.16;;;15.51;100.00
78411;BME280;67706;51.074;-1.796;2023-08-17T05:12:50;101479.53;;;15.59;100.00
78411;BME280;67706;51.074;-1.796;2023-08-17T05:15:16;101473.78;;;15.67;100.00
78411;BME280;67706;51.074;-1.796;2023-08-17T05:17:42;101473.16;;;15.65;100.00
78411;BME280;67706;51.074;-1.796;2023-08-17T05:20:09;101475.91;;;15.65;100.00
78411;BME280;67706;51.074;-1.796;2023-08-17T05:22:36;101479.13;;;15.68;100.00
78411;BME280;67706;51.074;-1.796;2023-08-17T05:25:02;101479.53;;;15.72;100.00
78411;BME280;67706;51.074;-1.796;2023-08-17T05:27:28;101479.28;;;15.80;99.72
78411;BME280;67706;51.074;-1.796;2023-08-17T05:29:54;101487.59;;;15.80;99.75
78411;BME280;67706;51.074;-1.796;2023-08-17T05:32:20;101487.38;;;15.81;99.64
78411;BME280;67706;51.074;-1.796;2023-08-17T05:34:46;101478.00;;;15.82;99.89
78411;BME280;67706;51.074;-1.796;2023-08-17T05:37:12;101491.22;;;15.80;100.00
78411;BME280;67706;51.074;-1.796;2023-08-17T05:39:41;101490.75;;;15.83;100.00
78411;BME280;67706;51.074;-1.796;2023-08-17T05:42:07;101484.81;;;15.86;99.86
78411;BME280;67706;51.074;-1.796;2023-08-17T05:44:33;101491.63;;;15.90;99.55
78411;BME280;67706;51.074;-1.796;2023-08-17T05:46:59;101492.06;;;15.87;99.94
78411;BME280;67706;51.074;-1.796;2023-08-17T05:49:25;101486.06;;;15.90;99.75
78411;BME280;67706;51.074;-1.796;2023-08-17T05:51:50;101490.34;;;15.93;99.40
78411;BME280;67706;51.074;-1.796;2023-08-17T05:54:17;101479.66;;;15.97;99.43
78411;BME280;67706;51.074;-1.796;2023-08-17T05:56:44;101491.59;;;15.97;99.10
78411;BME280;67706;51.074;-1.796;2023-08-17T05:59:12;101491.19;;;16.00;99.20
78411;BME280;67706;51.074;-1.796;2023-08-17T06:01:39;101486.91;;;15.98;99.05
78411;BME280;67706;51.074;-1.796;2023-08-17T06:04:05;101488.59;;;15.99;99.02
78411;BME280;67706;51.074;-1.796;2023-08-17T06:06:32;101473.25;;;16.03;98.88
78411;BME280;67706;51.074;-1.796;2023-08-17T06:08:58;101480.94;;;16.01;99.32
78411;BME280;67706;51.074;-1.796;2023-08-17T06:11:24;101477.53;;;16.05;98.98
78411;BME280;67706;51.074;-1.796;2023-08-17T06:13:50;101481.97;;;16.13;98.35
78411;BME280;67706;51.074;-1.796;2023-08-17T06:16:16;101485.38;;;16.15;98.63
78411;BME280;67706;51.074;-1.796;2023-08-17T06:18:43;101473.81;;;16.24;97.92
78411;BME280;67706;51.074;-1.796;2023-08-17T06:21:08;101474.84;;;16.30;97.68
78411;BME280;67706;51.074;-1.796;2023-08-17T06:23:34;101478.25;;;16.32;97.58
78411;BME280;67706;51.074;-1.796;2023-08-17T06:26:00;101478.88;;;16.34;97.79
78411;BME280;67706;51.074;-1.796;2023-08-17T06:28:26;101478.03;;;16.40;97.40
78411;BME280;67706;51.074;-1.796;2023-08-17T06:30:54;101475.00;;;16.48;97.16
78411;BME280;67706;51.074;-1.796;2023-08-17T06:33:21;101474.53;;;16.57;96.77
78411;BME280;67706;51.074;-1.796;2023-08-17T06:35:47;101474.50;;;16.64;95.99
78411;BME280;67706;51.074;-1.796;2023-08-17T06:38:14;101472.72;;;16.76;95.81
78411;BME280;67706;51.074;-1.796;2023-08-17T06:40:40;101474.16;;;16.85;95.46
78411;BME280;67706;51.074;-1.796;2023-08-17T06:43:06;101470.00;;;17.01;94.62
78411;BME280;67706;51.074;-1.796;2023-08-17T06:45:33;101462.88;;;17.11;93.62
78411;BME280;67706;51.074;-1.796;2023-08-17T06:48:00;101473.69;;;17.19;93.05
78411;BME280;67706;51.074;-1.796;2023-08-17T06:50:26;101465.31;;;17.26;93.41
78411;BME280;67706;51.074;-1.796;2023-08-17T06:52:53;101462.72;;;17.31;93.12
78411;BME280;67706;51.074;-1.796;2023-08-17T06:55:20;101459.94;;;17.56;92.17
78411;BME280;67706;51.074;-1.796;2023-08-17T06:57:47;101456.09;;;17.57;91.70
78411;BME280;67706;51.074;-1.796;2023-08-17T07:00:15;101451.31;;;17.64;91.51
78411;BME280;67706;51.074;-1.796;2023-08-17T07:02:43;101452.66;;;17.61;91.46
78411;BME280;67706;51.074;-1.796;2023-08-17T07:05:10;101454.31;;;17.62;91.32
78411;BME280;67706;51.074;-1.796;2023-08-17T07:07:36;101447.03;;;17.68;90.94
78411;BME280;67706;51.074;-1.796;2023-08-17T07:10:05;101446.41;;;17.66;90.91
78411;BME280;67706;51.074;-1.796;2023-08-17T07:12:32;101448.78;;;17.62;91.42
78411;BME280;67706;51.074;-1.796;2023-08-17T07:14:58;101447.03;;;17.68;91.53
78411;BME280;67706;51.074;-1.796;2023-08-17T07:17:24;101449.19;;;17.66;91.26
78411;BME280;67706;51.074;-1.796;2023-08-17T07:19:50;101446.94;;;17.74;91.00
78411;BME280;67706;51.074;-1.796;2023-08-17T07:22:16;101444.25;;;17.86;90.34
78411;BME280;67706;51.074;-1.796;2023-08-17T07:24:42;101448.03;;;17.91;89.98
78411;BME280;67706;51.074;-1.796;2023-08-17T07:27:09;101444.56;;;17.96;89.90
78411;BME280;67706;51.074;-1.796;2023-08-17T07:29:35;101450.41;;;18.06;89.57
78411;BME280;67706;51.074;-1.796;2023-08-17T07:32:01;101449.34;;;18.07;89.20
78411;BME280;67706;51.074;-1.796;2023-08-17T07:34:27;101446.53;;;18.25;88.46
78411;BME280;67706;51.074;-1.796;2023-08-17T07:36:53;101450.19;;;18.25;88.39
78411;BME280;67706;51.074;-1.796;2023-08-17T07:39:20;101450.56;;;18.29;88.29
78411;BME280;67706;51.074;-1.796;2023-08-17T07:41:46;101454.78;;;18.32;87.78
78411;BME280;67706;51.074;-1.796;2023-08-17T07:44:12;101456.41;;;18.39;87.49
78411;BME280;67706;51.074;-1.796;2023-08-17T07:46:38;101454.88;;;18.43;87.62
78411;BME280;67706;51.074;-1.796;2023-08-17T07:49:04;101451.03;;;18.44;87.62
78411;BME280;67706;51.074;-1.796;2023-08-17T07:51:30;101442.28;;;18.41;87.58
78411;BME280;67706;51.074;-1.796;2023-08-17T07:53:59;101449.31;;;18.43;87.23
78411;BME280;67706;51.074;-1.796;2023-08-17T07:56:26;101447.56;;;18.49;86.95
78411;BME280;67706;51.074;-1.796;2023-08-17T07:58:53;101448.50;;;18.72;85.64
78411;BME280;67706;51.074;-1.796;2023-08-17T08:01:19;101442.38;;;18.93;84.31
78411;BME280;67706;51.074;-1.796;2023-08-17T08:03:45;101449.44;;;19.08;83.88
78411;BME280;67706;51.074;-1.796;2023-08-17T08:06:11;101443.75;;;19.14;83.60
78411;BME280;67706;51.074;-1.796;2023-08-17T08:08:37;101438.09;;;19.21;83.80
78411;BME280;67706;51.074;-1.796;2023-08-17T08:11:04;101439.69;;;19.40;82.90
78411;BME280;67706;51.074;-1.796;2023-08-17T08:13:30;101439.34;;;19.48;82.08
78411;BME280;67706;51.074;-1.796;2023-08-17T08:15:58;101434.50;;;19.55;81.68
78411;BME280;67706;51.074;-1.796;2023-08-17T08:18:24;101434.25;;;19.56;81.47
78411;BME280;67706;51.074;-1.796;2023-08-17T08:20:50;101437.28;;;19.66;81.26
78411;BME280;67706;51.074;-1.796;2023-08-17T08:23:16;101434.72;;;19.65;81.09
78411;BME280;67706;51.074;-1.796;2023-08-17T08:25:43;101437.78;;;19.75;80.03
78411;BME280;67706;51.074;-1.796;2023-08-17T08:28:09;101445.03;;;19.88;79.78
78411;BME280;67706;51.074;-1.796;2023-08-17T08:30:36;101434.84;;;19.93;79.33
78411;BME280;67706;51.074;-1.796;2023-08-17T08:33:02;101442.81;;;20.01;78.80
78411;BME280;67706;51.074;-1.796;2023-08-17T08:35:29;101438.34;;;20.00;79.31
78411;BME280;67706;51.074;-1.796;2023-08-17T08:37:55;101430.94;;;19.94;78.57
78411;BME280;67706;51.074;-1.796;2023-08-17T08:40:27;101441.47;;;19.92;78.80
78411;BME280;67706;51.074;-1.796;2023-08-17T08:42:53;101442.94;;;20.06;78.97
78411;BME280;67706;51.074;-1.796;2023-08-17T08:45:19;101446.53;;;20.18;78.41
78411;BME280;67706;51.074;-1.796;2023-08-17T08:47:47;101444.22;;;20.15;77.67
78411;BME280;67706;51.074;-1.796;2023-08-17T08:50:17;101441.81;;;20.19;77.00
78411;BME280;67706;51.074;-1.796;2023-08-17T08:52:50;101444.56;;;20.30;77.92
78411;BME280;67706;51.074;-1.796;2023-08-17T08:55:18;101435.59;;;20.40;77.11
78411;BME280;67706;51.074;-1.796;2023-08-17T08:57:47;101434.94;;;20.49;76.24
78411;BME280;67706;51.074;-1.796;2023-08-17T09:00:16;101432.72;;;20.63;75.58
78411;BME280;67706;51.074;-1.796;2023-08-17T09:02:42;101434.25;;;20.71;76.00
78411;BME280;67706;51.074;-1.796;2023-08-17T09:05:10;101439.34;;;20.90;74.86
78411;BME280;67706;51.074;-1.796;2023-08-17T09:07:37;101429.97;;;20.80;74.46
78411;BME280;67706;51.074;-1.796;2023-08-17T09:10:03;101432.03;;;21.01;75.01
78411;BME280;67706;51.074;-1.796;2023-08-17T09:12:30;101432.28;;;21.32;74.33
78411;BME280;67706;51.074;-1.796;2023-08-17T09:14:56;101428.09;;;21.30;72.76
78411;BME280;67706;51.074;-1.796;2023-08-17T09:17:23;101420.50;;;21.47;72.57
78411;BME280;67706;51.074;-1.796;2023-08-17T09:19:50;101434.75;;;21.46;72.48
78411;BME280;67706;51.074;-1.796;2023-08-17T09:22:22;101415.75;;;21.26;72.79
78411;BME280;67706;51.074;-1.796;2023-08-17T09:24:48;101409.31;;;21.25;72.82
78411;BME280;67706;51.074;-1.796;2023-08-17T09:27:14;101408.78;;;21.28;72.88
78411;BME280;67706;51.074;-1.796;2023-08-17T09:29:42;101399.16;;;21.36;73.09
78411;BME280;67706;51.074;-1.796;2023-08-17T09:32:11;101397.09;;;21.48;72.70
78411;BME280;67706;51.074;-1.796;2023-08-17T09:34:37;101403.34;;;21.55;72.06
78411;BME280;67706;51.074;-1.796;2023-08-17T09:37:03;101404.13;;;21.72;71.38
78411;BME280;67706;51.074;-1.796;2023-08-17T09:39:30;101413.19;;;21.79;70.96
78411;BME280;67706;51.074;-1.796;2023-08-17T09:41:57;101412.94;;;21.81;70.77
78411;BME280;67706;51.074;-1.796;2023-08-17T09:44:23;101399.16;;;21.91;68.83
78411;BME280;67706;51.074;-1.796;2023-08-17T09:46:49;101398.34;;;21.95;67.21
78411;BME280;67706;51.074;-1.796;2023-08-17T09:49:17;101404.09;;;22.05;65.69
78411;BME280;67706;51.074;-1.796;2023-08-17T09:51:43;101400.38;;;22.22;66.68
78411;BME280;67706;51.074;-1.796;2023-08-17T09:54:19;101408.38;;;22.35;66.00
78411;BME280;67706;51.074;-1.796;2023-08-17T09:56:46;101409.53;;;22.39;66.69
78411;BME280;67706;51.074;-1.796;2023-08-17T09:59:13;101409.53;;;22.39;66.98
78411;BME280;67706;51.074;-1.796;2023-08-17T10:01:39;101405.69;;;22.45;65.16
78411;BME280;67706;51.074;-1.796;2023-08-17T10:04:06;101406.47;;;22.40;64.58
78411;BME280;67706;51.074;-1.796;2023-08-17T10:06:33;101405.88;;;22.38;64.27
78411;BME280;67706;51.074;-1.796;2023-08-17T10:09:01;101403.47;;;22.47;63.70
78411;BME280;67706;51.074;-1.796;2023-08-17T10:11:31;101400.13;;;22.50;64.29
78411;BME280;67706;51.074;-1.796;2023-08-17T10:14:09;101401.75;;;22.46;63.35
78411;BME280;67706;51.074;-1.796;2023-08-17T10:16:43;101399.44;;;22.59;63.91
78411;BME280;67706;51.074;-1.796;2023-08-17T10:19:11;101395.38;;;22.72;63.23
78411;BME280;67706;51.074;-1.796;2023-08-17T10:21:43;101386.88;;;22.88;62.90
78411;BME280;67706;51.074;-1.796;2023-08-17T10:24:13;101382.13;;;22.89;62.29
78411;BME280;67706;51.074;-1.796;2023-08-17T10:26:39;101382.84;;;23.06;61.68
78411;BME280;67706;51.074;-1.796;2023-08-17T10:29:07;101378.84;;;23.02;59.95
78411;BME280;67706;51.074;-1.796;2023-08-17T10:31:34;101390.31;;;23.01;60.21
78411;BME280;67706;51.074;-1.796;2023-08-17T10:34:01;101380.84;;;23.02;60.80
78411;BME280;67706;51.074;-1.796;2023-08-17T10:36:30;101378.84;;;22.97;59.68
78411;BME280;67706;51.074;-1.796;2023-08-17T10:39:18;101374.59;;;22.95;58.93
78411;BME280;67706;51.074;-1.796;2023-08-17T10:41:46;101379.72;;;23.03;59.48
78411;BME280;67706;51.074;-1.796;2023-08-17T10:44:14;101374.44;;;23.06;58.78
78411;BME280;67706;51.074;-1.796;2023-08-17T10:46:40;101384.72;;;23.01;57.83
78411;BME280;67706;51.074;-1.796;2023-08-17T10:49:25;101375.47;;;22.95;58.08
78411;BME280;67706;51.074;-1.796;2023-08-17T10:52:02;101386.09;;;22.98;57.02
78411;BME280;67706;51.074;-1.796;2023-08-17T10:54:36;101385.09;;;23.09;57.09
78411;BME280;67706;51.074;-1.796;2023-08-17T10:57:33;101379.97;;;23.01;57.57
78411;BME280;67706;51.074;-1.796;2023-08-17T11:00:15;101379.50;;;23.09;57.63
78411;BME280;67706;51.074;-1.796;2023-08-17T11:02:43;101382.59;;;23.13;57.44
78411;BME280;67706;51.074;-1.796;2023-08-17T11:05:10;101377.69;;;23.66;57.49
78411;BME280;67706;51.074;-1.796;2023-08-17T11:07:41;101373.81;;;23.78;56.50
78411;BME280;67706;51.074;-1.796;2023-08-17T11:10:11;101379.69;;;23.71;57.13
78411;BME280;67706;51.074;-1.796;2023-08-17T11:12:40;101372.09;;;23.72;56.69
78411;BME280;67706;51.074;-1.796;2023-08-17T11:15:07;101372.09;;;23.66;57.27
78411;BME280;67706;51.074;-1.796;2023-08-17T11:17:34;101380.34;;;23.46;57.40
78411;BME280;67706;51.074;-1.796;2023-08-17T11:20:00;101382.13;;;23.21;59.08
78411;BME280;67706;51.074;-1.796;2023-08-17T11:22:27;101386.44;;;23.33;58.41
78411;BME280;67706;51.074;-1.796;2023-08-17T11:24:53;101377.25;;;23.43;59.44
78411;BME280;67706;51.074;-1.796;2023-08-17T11:27:20;101378.63;;;23.40;59.56
78411;BME280;67706;51.074;-1.796;2023-08-17T11:29:47;101385.38;;;23.39;59.53
78411;BME280;67706;51.074;-1.796;2023-08-17T11:32:16;101375.81;;;23.35;59.94
78411;BME280;67706;51.074;-1.796;2023-08-17T11:34:43;101381.47;;;23.45;59.97
78411;BME280;67706;51.074;-1.796;2023-08-17T11:37:11;101370.81;;;23.42;60.26
78411;BME280;67706;51.074;-1.796;2023-08-17T11:39:37;101370.78;;;23.37;60.53
78411;BME280;67706;51.074;-1.796;2023-08-17T11:42:04;101374.53;;;23.53;60.63
78411;BME280;67706;51.074;-1.796;2023-08-17T11:44:30;101362.41;;;23.42;59.96
78411;BME280;67706;51.074;-1.796;2023-08-17T11:46:57;101358.47;;;23.38;60.41
78411;BME280;67706;51.074;-1.796;2023-08-17T11:49:23;101355.13;;;23.41;60.89
78411;BME280;67706;51.074;-1.796;2023-08-17T11:51:51;101360.69;;;23.36;61.06
78411;BME280;67706;51.074;-1.796;2023-08-17T11:54:17;101359.03;;;23.35;60.60
78411;BME280;67706;51.074;-1.796;2023-08-17T11:56:43;101359.03;;;23.09;61.62
78411;BME280;67706;51.074;-1.796;2023-08-17T11:59:10;101356.47;;;23.02;61.93
78411;BME280;67706;51.074;-1.796;2023-08-17T12:01:37;101351.72;;;23.03;62.37
78411;BME280;67706;51.074;-1.796;2023-08-17T12:04:04;101351.13;;;22.96;62.62
78411;BME280;67706;51.074;-1.796;2023-08-17T12:06:31;101349.72;;;22.98;62.36
78411;BME280;67706;51.074;-1.796;2023-08-17T12:08:58;101350.88;;;23.02;62.42
78411;BME280;67706;51.074;-1.796;2023-08-17T12:11:24;101351.91;;;22.91;63.36
78411;BME280;67706;51.074;-1.796;2023-08-17T12:13:50;101348.72;;;22.77;63.91
78411;BME280;67706;51.074;-1.796;2023-08-17T12:16:17;101354.00;;;22.74;63.00
78411;BME280;67706;51.074;-1.796;2023-08-17T12:18:44;101349.84;;;22.76;63.73
78411;BME280;67706;51.074;-1.796;2023-08-17T12:21:10;101353.06;;;22.95;62.86
78411;BME280;67706;51.074;-1.796;2023-08-17T12:23:36;101349.16;;;22.96;62.62
78411;BME280;67706;51.074;-1.796;2023-08-17T12:26:03;101342.47;;;22.97;62.89
78411;BME280;67706;51.074;-1.796;2023-08-17T12:28:29;101335.22;;;23.01;62.95
78411;BME280;67706;51.074;-1.796;2023-08-17T12:30:59;101319.03;;;23.08;62.59
78411;BME280;67706;51.074;-1.796;2023-08-17T12:33:26;101328.47;;;23.34;62.12
78411;BME280;67706;51.074;-1.796;2023-08-17T12:35:52;101323.00;;;23.54;60.75
78411;BME280;67706;51.074;-1.796;2023-08-17T12:38:19;101317.97;;;23.56;59.85